Time;durP1;ratioP1;P1;durP2;ratioP2;P2;SDS_P1;SDS_P2;PMS_P1;PMS_P2;Temp;Humidity;BMP_temperature;BMP_pressure;BME280_temperature;BME280_humidity;BME280_pressure;Samples;Min_cycle;Max_cycle;Signal;HPM_P1;HPM_P2
2022/08/04 00:01:06;;;;;;;9.00;3.60;;;;;;;21.77;80.47;101480.97;5093126;28;20212;-71
2022/08/04 00:03:58;;;;;;;8.90;3.23;;;;;;;21.82;80.96;101484.38;5093094;28;20646;-73
2022/08/04 00:07:29;;;;;;;12.63;3.70;;;;;;;21.72;80.96;101486.28;5092814;28;20172;-71
2022/08/04 00:10:02;;;;;;;7.30;3.30;;;;;;;21.68;81.25;101481.06;5046373;28;20200;-73
2022/08/04 00:12:32;;;;;;;6.50;3.30;;;;;;;21.66;81.16;101482.88;5050101;28;20206;-72
2022/08/04 00:15:02;;;;;;;9.77;3.73;;;;;;;21.64;81.39;101485.50;5075021;28;20215;-73
2022/08/04 00:17:37;;;;;;;8.50;3.30;;;;;;;21.63;81.36;101480.28;5092910;28;20595;-73
2022/08/04 00:20:04;;;;;;;5.57;3.17;;;;;;;21.65;81.40;101478.53;5092981;28;20681;-73
2022/08/04 00:22:31;;;;;;;5.43;2.97;;;;;;;21.62;81.63;101478.56;5089345;28;20304;-73
2022/08/04 00:24:57;;;;;;;9.17;3.10;;;;;;;21.62;81.47;101470.75;5081244;28;20251;-72
2022/08/04 00:27:23;;;;;;;8.53;3.43;;;;;;;21.57;82.06;101470.84;5092411;28;20177;-71
2022/08/04 00:29:50;;;;;;;8.20;3.33;;;;;;;21.54;82.03;101473.50;5074832;28;20185;-73
2022/08/04 00:32:17;;;;;;;7.87;3.50;;;;;;;21.53;82.33;101476.97;5072675;28;20296;-72
2022/08/04 00:34:42;;;;;;;11.53;3.27;;;;;;;21.52;82.48;101471.78;5072593;28;20239;-73
2022/08/04 00:37:09;;;;;;;7.43;3.20;;;;;;;21.48;82.46;101478.81;5072426;28;20660;-73
2022/08/04 00:39:34;;;;;;;9.93;3.73;;;;;;;21.46;82.39;101474.50;5072329;28;20185;-73
2022/08/04 00:42:19;;;;;;;6.73;2.90;;;;;;;21.49;82.66;101477.03;5080625;28;20266;-73
2022/08/04 00:45:11;;;;;;;6.90;3.80;;;;;;;21.43;83.24;101477.97;5074255;28;20193;-73
2022/08/04 00:47:39;;;;;;;6.93;3.50;;;;;;;21.45;82.92;101480.56;5072347;28;20181;-73
2022/08/04 00:50:41;;;;;;;7.80;3.50;;;;;;;21.43;83.86;101482.34;5070983;28;20193;-73
2022/08/04 00:53:35;;;;;;;9.73;3.70;;;;;;;21.42;83.40;101486.69;5071406;28;20204;-73
2022/08/04 00:56:15;;;;;;;7.70;3.33;;;;;;;21.33;83.79;101472.94;5072240;28;20190;-71
2022/08/04 00:58:55;;;;;;;9.30;3.80;;;;;;;21.32;84.22;101482.50;5071172;28;20180;-73
2022/08/04 01:01:59;;;;;;;10.00;3.33;;;;;;;21.32;83.86;101479.00;5073643;28;20744;-73
2022/08/04 01:04:34;;;;;;;6.63;3.37;;;;;;;21.30;83.49;101475.59;5051990;28;20256;-72
2022/08/04 01:07:16;;;;;;;6.53;3.40;;;;;;;21.26;83.24;101469.56;5063801;28;20180;-73
2022/08/04 01:10:00;;;;;;;6.93;3.37;;;;;;;21.14;84.26;101463.66;5071446;28;20193;-73
2022/08/04 01:12:59;;;;;;;7.70;3.13;;;;;;;21.16;84.09;101456.69;5062632;28;20211;-72
2022/08/04 01:15:38;;;;;;;7.10;3.63;;;;;;;21.11;83.91;101453.28;5078948;28;20235;-72
2022/08/04 01:18:07;;;;;;;6.57;3.23;;;;;;;21.03;84.25;101458.59;5090404;28;20192;-72
2022/08/04 01:20:41;;;;;;;12.00;3.30;;;;;;;21.05;84.33;101461.19;5071511;28;20239;-73
2022/08/04 01:23:25;;;;;;;7.30;3.00;;;;;;;21.03;84.05;101456.00;5071430;28;20188;-72
2022/08/04 01:26:30;;;;;;;10.67;3.87;;;;;;;20.92;85.05;101447.44;5070087;28;20192;-72
2022/08/04 01:28:55;;;;;;;6.13;3.40;;;;;;;20.93;84.74;101457.00;5070411;28;20605;-72
2022/08/04 01:31:31;;;;;;;8.03;3.30;;;;;;;20.83;85.23;101452.72;5071443;28;20220;-72
2022/08/04 01:34:01;;;;;;;6.07;3.30;;;;;;;20.82;84.64;101445.81;5071461;28;20283;-71
2022/08/04 01:36:32;;;;;;;5.60;3.10;;;;;;;20.78;84.84;101449.31;5071295;28;20644;-71
2022/08/04 01:39:39;;;;;;;6.90;3.67;;;;;;;20.69;85.31;101446.84;5071565;28;20185;-71
2022/08/04 01:41:45;;;;;;;7.90;3.60;;;;;;;20.71;84.82;101439.88;5071136;28;20316;-72
2022/08/04 01:44:13;;;;;;;7.03;3.37;;;;;;;20.72;84.60;101451.13;5071072;28;20267;-72
2022/08/04 01:46:39;;;;;;;8.43;3.57;;;;;;;20.71;84.81;101441.63;5070826;28;20215;-72
2022/08/04 01:49:06;;;;;;;7.67;3.20;;;;;;;20.60;84.54;101441.72;5069767;28;20189;-73
2022/08/04 01:51:34;;;;;;;8.33;3.30;;;;;;;20.63;84.44;101439.09;5071917;28;20212;-73
2022/08/04 01:54:00;;;;;;;6.27;3.00;;;;;;;20.55;84.92;101440.09;5071933;28;20283;-70
2022/08/04 01:56:27;;;;;;;7.57;3.10;;;;;;;20.46;84.94;101443.63;5068780;28;20272;-73
2022/08/04 01:58:56;;;;;;;5.77;3.27;;;;;;;20.44;84.86;101447.13;5069259;28;20196;-73
2022/08/04 02:01:22;;;;;;;7.07;3.80;;;;;;;20.39;84.83;101446.31;5066591;28;20217;-72
2022/08/04 02:03:47;;;;;;;9.10;3.93;;;;;;;20.38;85.04;101447.22;5070783;28;20193;-72
2022/08/04 02:06:19;;;;;;;6.80;3.27;;;;;;;20.33;85.17;101436.88;5071651;28;20227;-71
2022/08/04 02:09:02;;;;;;;6.83;3.13;;;;;;;20.17;86.21;101437.06;5070910;28;20184;-72
2022/08/04 02:11:28;;;;;;;6.27;3.37;;;;;;;20.23;86.12;101431.78;5070460;28;20212;-72
2022/08/04 02:13:59;;;;;;;6.23;3.13;;;;;;;20.22;85.91;101435.25;5070199;28;20177;-73
2022/08/04 02:16:37;;;;;;;8.50;3.27;;;;;;;20.12;86.29;101436.19;5068942;28;20224;-71
2022/08/04 02:19:28;;;;;;;6.37;3.90;;;;;;;20.16;86.73;101437.91;5069979;28;20181;-72
2022/08/04 02:22:05;;;;;;;5.47;3.23;;;;;;;20.12;87.10;101434.47;5069769;28;20224;-72
2022/08/04 02:24:31;;;;;;;8.53;3.27;;;;;;;20.09;86.54;101438.84;5081755;28;20464;-72
2022/08/04 02:26:59;;;;;;;6.67;3.30;;;;;;;20.03;86.97;101434.53;5060604;28;20177;-72
2022/08/04 02:29:33;;;;;;;6.13;3.63;;;;;;;19.98;87.10;101431.13;5069986;28;20219;-72
2022/08/04 02:32:08;;;;;;;7.83;3.57;;;;;;;19.96;87.37;101437.22;5069953;28;20237;-71
2022/08/04 02:35:05;;;;;;;7.20;3.90;;;;;;;19.91;87.15;101431.19;5069893;28;20198;-73
2022/08/04 02:37:32;;;;;;;6.37;3.40;;;;;;;19.94;86.18;101436.38;5045077;28;20205;-72
2022/08/04 02:40:00;;;;;;;11.23;3.57;;;;;;;19.77;87.51;101430.44;5069984;28;20177;-72
2022/08/04 02:42:28;;;;;;;6.97;3.57;;;;;;;19.86;87.66;101427.78;5069736;28;20314;-71
2022/08/04 02:44:56;;;;;;;8.00;3.60;;;;;;;19.87;88.48;101432.09;5069818;28;20728;-71
2022/08/04 02:47:24;;;;;;;5.83;3.27;;;;;;;19.86;88.19;101430.38;5069530;28;20659;-71
2022/08/04 02:49:51;;;;;;;8.07;3.60;;;;;;;19.72;88.22;101427.03;5069561;28;20196;-72
2022/08/04 02:52:20;;;;;;;7.03;3.60;;;;;;;19.70;88.08;101429.63;5069251;28;20629;-72
2022/08/04 02:54:49;;;;;;;8.53;3.93;;;;;;;19.78;87.96;101421.78;5069611;28;20710;-72
2022/08/04 02:57:17;;;;;;;5.33;3.47;;;;;;;19.76;88.33;101426.97;5069223;28;20719;-73
2022/08/04 03:00:18;;;;;;;6.50;3.70;;;;;;;19.82;87.97;101419.16;5069236;28;20185;-72
2022/08/04 03:02:52;;;;;;;6.83;3.57;;;;;;;19.77;87.69;101417.47;5018533;28;20233;-72
2022/08/04 03:05:24;;;;;;;7.90;3.60;;;;;;;19.70;87.40;101424.44;5065224;28;20299;-73
2022/08/04 03:08:45;;;;;;;5.97;3.87;;;;;;;19.51;88.29;101428.06;5069207;28;20265;-72
2022/08/04 03:11:48;;;;;;;6.37;3.23;;;;;;;19.56;87.36;101430.63;5049708;28;20201;-71
2022/08/04 03:14:45;;;;;;;7.47;4.33;;;;;;;19.52;87.46;101424.59;5066312;28;20314;-73
2022/08/04 03:17:26;;;;;;;5.57;3.87;;;;;;;19.51;88.04;101430.66;5056573;28;20204;-70
2022/08/04 03:20:09;;;;;;;8.03;4.57;;;;;;;19.50;87.97;101430.66;5069479;28;20197;-72
2022/08/04 03:23:17;;;;;;;7.70;3.93;;;;;;;19.50;88.55;101436.75;5068715;28;20217;-73
2022/08/04 03:25:57;;;;;;;5.93;3.70;;;;;;;19.49;88.25;101428.97;5069228;28;20189;-72
2022/08/04 03:28:23;;;;;;;8.47;3.93;;;;;;;19.43;88.22;101429.84;5068291;28;20568;-72
2022/08/04 03:31:14;;;;;;;7.00;4.10;;;;;;;19.40;87.91;101422.06;5066912;28;20221;-72
2022/08/04 03:33:54;;;;;;;6.20;3.60;;;;;;;19.39;87.79;101435.94;5062016;28;20689;-73
2022/08/04 03:36:20;;;;;;;5.07;3.60;;;;;;;19.31;88.47;101432.56;5068779;28;20181;-72
2022/08/04 03:39:04;;;;;;;5.30;3.80;;;;;;;19.36;88.23;101428.19;5069153;28;20204;-72
2022/08/04 03:42:06;;;;;;;8.13;3.70;;;;;;;19.33;88.06;101423.00;5068503;28;20205;-72
2022/08/04 03:44:59;;;;;;;5.17;3.53;;;;;;;19.32;88.10;101426.47;5069331;28;20220;-71
2022/08/04 03:47:48;;;;;;;6.27;4.10;;;;;;;19.29;88.71;101430.81;5067891;28;20194;-71
2022/08/04 03:50:32;;;;;;;7.43;4.10;;;;;;;19.27;88.73;101433.44;5068813;28;20211;-72
2022/08/04 03:53:32;;;;;;;6.13;4.20;;;;;;;19.23;88.82;101430.84;5069184;28;20218;-71
2022/08/04 03:56:06;;;;;;;6.00;3.83;;;;;;;19.25;89.31;101434.31;5049346;28;20189;-72
2022/08/04 03:59:11;;;;;;;7.23;4.87;;;;;;;19.29;89.10;101433.41;5063478;28;20188;-72
2022/08/04 04:02:05;;;;;;;9.57;5.77;;;;;;;19.30;88.16;101432.56;5055605;28;20350;-72
2022/08/04 04:04:44;;;;;;;9.23;5.77;;;;;;;19.30;88.19;101433.41;5058619;28;20836;-72
2022/08/04 04:07:33;;;;;;;6.43;4.67;;;;;;;19.32;88.22;101431.66;5068703;28;20180;-72
2022/08/04 04:10:14;;;;;;;6.53;4.13;;;;;;;19.35;87.92;101431.63;5068905;28;20189;-70
2022/08/04 04:12:45;;;;;;;6.40;3.87;;;;;;;19.35;87.89;101426.44;5068668;28;20290;-72
2022/08/04 04:15:35;;;;;;;5.90;3.80;;;;;;;19.33;88.68;101424.72;5068435;28;20239;-71
2022/08/04 04:18:03;;;;;;;7.57;4.57;;;;;;;19.41;88.95;101430.75;5068628;28;20200;-73
2022/08/04 04:20:50;;;;;;;4.83;3.50;;;;;;;19.42;89.53;101429.84;5067338;28;20191;-73
2022/08/04 04:23:40;;;;;;;6.37;3.43;;;;;;;19.43;89.73;101427.25;5069139;28;20686;-72
2022/08/04 04:26:28;;;;;;;6.47;3.90;;;;;;;19.49;89.65;101422.00;5054619;28;20205;-72
2022/08/04 04:29:35;;;;;;;7.70;4.03;;;;;;;19.55;90.72;101429.78;5064890;28;20216;-72
2022/08/04 04:32:15;;;;;;;5.47;4.17;;;;;;;19.60;90.51;101417.59;5064430;28;20572;-72
2022/08/04 04:34:52;;;;;;;8.33;4.10;;;;;;;19.59;90.68;101422.81;5068235;28;20181;-72
2022/08/04 04:37:39;;;;;;;8.13;4.47;;;;;;;19.63;90.48;101411.50;5067280;28;20177;-73
2022/08/04 04:40:23;;;;;;;8.80;4.20;;;;;;;19.63;90.27;101412.34;5068646;28;20173;-71
2022/08/04 04:43:00;;;;;;;8.53;4.87;;;;;;;19.70;90.67;101413.16;5071772;28;20278;-71
2022/08/04 04:45:47;;;;;;;10.00;5.20;;;;;;;19.78;90.52;101416.56;5064089;28;20219;-72
2022/08/04 04:48:31;;;;;;;5.27;4.63;;;;;;;19.85;90.66;101413.06;5071688;28;20204;-71
2022/08/04 04:51:15;;;;;;;11.67;5.10;;;;;;;19.98;90.66;101417.25;5072607;28;20688;-71
2022/08/04 04:53:54;;;;;;;9.77;5.13;;;;;;;20.10;90.20;101414.56;5072544;28;20177;-71
2022/08/04 04:56:29;;;;;;;7.40;4.53;;;;;;;20.24;88.47;101405.75;5088002;28;20196;-72
2022/08/04 04:58:57;;;;;;;8.17;5.70;;;;;;;20.28;89.93;101406.56;5072887;28;20191;-70
2022/08/04 05:02:00;;;;;;;11.10;6.00;;;;;;;20.37;89.59;101409.94;5083866;28;20212;-71
2022/08/04 05:04:41;;;;;;;9.03;5.43;;;;;;;20.47;88.74;101400.28;5088159;28;20211;-72
2022/08/04 05:07:56;;;;;;;11.33;5.40;;;;;;;20.54;88.86;101407.13;5071974;28;20195;-73
2022/08/04 05:10:36;;;;;;;9.27;5.63;;;;;;;20.64;88.96;101401.78;5072014;28;20204;-73
2022/08/04 05:13:44;;;;;;;8.77;5.67;;;;;;;20.82;88.66;101398.94;5071900;28;20185;-73
2022/08/04 05:16:20;;;;;;;11.33;5.03;;;;;;;20.97;88.35;101397.91;5063258;28;20204;-72
2022/08/04 05:18:56;;;;;;;7.60;5.03;;;;;;;21.11;87.29;101402.06;5070931;28;20287;-72
2022/08/04 05:21:41;;;;;;;10.03;5.50;;;;;;;21.24;87.50;101400.97;5071566;28;20728;-73
2022/08/04 05:24:09;;;;;;;9.70;5.10;;;;;;;21.41;87.00;101400.69;5071835;28;20235;-73
2022/08/04 05:26:40;;;;;;;7.97;4.17;;;;;;;21.54;86.89;101395.28;5071457;28;20692;-72
2022/08/04 05:29:10;;;;;;;8.50;4.47;;;;;;;21.73;86.38;101398.44;5070427;28;20181;-73
2022/08/04 05:31:40;;;;;;;9.53;4.97;;;;;;;21.93;85.54;101393.75;5071494;28;20211;-71
2022/08/04 05:34:14;;;;;;;9.97;5.27;;;;;;;22.06;85.51;101395.28;5071650;28;20219;-73
2022/08/04 05:36:45;;;;;;;9.37;5.50;;;;;;;22.16;84.84;101384.59;5071438;28;20192;-71
2022/08/04 05:39:17;;;;;;;13.67;5.60;;;;;;;22.42;83.85;101390.19;5071479;28;20191;-72
2022/08/04 05:41:44;;;;;;;14.53;5.43;;;;;;;22.50;82.64;101382.22;5078840;28;20223;-73
2022/08/04 05:44:10;;;;;;;9.63;5.40;;;;;;;22.52;83.17;101384.81;5083373;28;20200;-73
2022/08/04 05:46:36;;;;;;;7.40;4.47;;;;;;;22.38;83.82;101384.19;5090037;28;20202;-73
2022/08/04 05:49:03;;;;;;;8.13;4.87;;;;;;;22.31;84.35;101375.63;5083194;28;20263;-73
2022/08/04 05:51:30;;;;;;;12.03;5.60;;;;;;;22.32;84.73;101377.34;5091026;28;20670;-72
2022/08/04 05:53:57;;;;;;;9.87;5.60;;;;;;;22.47;84.09;101374.44;5090759;28;20271;-73
2022/08/04 05:56:24;;;;;;;9.10;5.17;;;;;;;22.52;83.32;101364.78;5091133;28;20245;-73
2022/08/04 05:58:51;;;;;;;12.10;5.17;;;;;;;22.56;84.06;101360.34;5090506;28;20184;-73
2022/08/04 06:01:18;;;;;;;9.43;5.17;;;;;;;22.85;82.73;101360.56;5069339;28;20214;-74
2022/08/04 06:03:47;;;;;;;10.93;4.87;;;;;;;23.16;81.01;101361.59;5059801;28;20580;-72
2022/08/04 06:06:16;;;;;;;9.17;5.10;;;;;;;23.37;80.02;101359.34;5070819;28;20277;-73
2022/08/04 06:08:42;;;;;;;7.10;4.60;;;;;;;23.59;78.73;101359.66;5051631;28;20197;-74
2022/08/04 06:11:10;;;;;;;8.97;4.77;;;;;;;23.77;78.15;101367.03;5050814;28;20202;-69
2022/08/04 06:13:43;;;;;;;9.47;4.30;;;;;;;23.94;77.39;101349.19;5050692;28;20182;-74
2022/08/04 06:16:12;;;;;;;8.43;4.33;;;;;;;24.05;77.58;101361.06;5050671;28;20198;-71
2022/08/04 06:18:39;;;;;;;11.23;4.40;;;;;;;24.00;78.18;101357.72;5050509;28;20178;-70
2022/08/04 06:21:07;;;;;;;9.30;5.00;;;;;;;24.00;77.97;101362.97;5067436;28;20303;-70
2022/08/04 06:23:36;;;;;;;8.87;5.00;;;;;;;23.90;78.62;101377.16;5070670;28;20315;-72
2022/08/04 06:26:03;;;;;;;9.93;4.80;;;;;;;24.05;77.98;101368.94;5070870;28;20595;-71
2022/08/04 06:28:29;;;;;;;6.83;4.37;;;;;;;24.04;77.85;101356.72;5070234;28;20246;-71
2022/08/04 06:31:01;;;;;;;9.50;4.00;;;;;;;24.28;76.92;101363.03;5051366;28;20319;-72
2022/08/04 06:33:32;;;;;;;9.00;4.67;;;;;;;24.45;75.99;101353.78;5077409;28;20181;-69
2022/08/04 06:36:00;;;;;;;12.30;4.53;;;;;;;24.79;74.88;101354.56;5081016;28;20180;-68
2022/08/04 06:38:28;;;;;;;7.85;4.00;;;;;;;25.05;74.84;101351.94;5078299;28;20287;-69
2022/08/04 06:40:58;;;;;;;10.40;4.22;;;;;;;25.34;74.32;101349.31;5070097;28;20216;-71
2022/08/04 06:43:25;;;;;;;10.00;3.88;;;;;;;25.56;73.02;101349.44;5081686;28;20188;-71
2022/08/04 06:45:51;;;;;;;7.97;3.88;;;;;;;25.49;71.42;101345.28;5090081;28;20196;-69
2022/08/04 06:48:18;;;;;;;5.20;3.70;;;;;;;25.52;71.82;101337.31;5088681;28;20245;-70
2022/08/04 06:50:47;;;;;;;9.32;3.95;;;;;;;25.61;71.84;101340.50;5090208;28;20196;-71
2022/08/04 06:53:13;;;;;;;6.97;3.25;;;;;;;25.61;72.01;101337.88;5090126;28;20191;-70
2022/08/04 06:55:41;;;;;;;9.60;3.53;;;;;;;25.69;71.28;101333.22;5090078;28;20180;-68
2022/08/04 06:58:08;;;;;;;5.22;2.88;;;;;;;25.75;70.24;101335.63;5084888;28;20196;-69
2022/08/04 07:00:35;;;;;;;5.68;2.90;;;;;;;25.89;70.18;101335.13;5071919;28;20188;-71
2022/08/04 07:03:02;;;;;;;9.23;3.60;;;;;;;25.98;69.74;101335.72;5082444;28;20208;-73
2022/08/04 07:05:28;;;;;;;6.63;3.17;;;;;;;26.24;69.74;101329.50;5077374;28;20276;-70
2022/08/04 07:07:55;;;;;;;8.68;3.28;;;;;;;26.42;68.89;101327.03;5070374;28;20208;-70
2022/08/04 07:10:22;;;;;;;6.10;3.00;;;;;;;26.46;67.86;101330.41;5070358;28;20201;-73
2022/08/04 07:12:48;;;;;;;8.77;2.95;;;;;;;26.56;68.29;101326.50;5070148;28;20208;-70
2022/08/04 07:15:16;;;;;;;5.60;3.33;;;;;;;26.82;67.65;101315.88;5069586;28;20181;-71
2022/08/04 07:17:43;;;;;;;7.32;3.17;;;;;;;27.09;66.95;101315.63;5068002;28;20204;-70
2022/08/04 07:20:09;;;;;;;6.72;2.65;;;;;;;27.38;65.70;101315.31;5070146;28;20185;-71
2022/08/04 07:22:35;;;;;;;5.38;2.85;;;;;;;27.67;63.70;101317.53;5069769;28;20213;-70
2022/08/04 07:25:01;;;;;;;9.10;2.80;;;;;;;27.87;63.32;101309.66;5083414;28;20197;-71
2022/08/04 07:27:26;;;;;;;7.28;2.53;;;;;;;27.99;62.50;101310.88;5089046;28;20214;-72
2022/08/04 07:29:52;;;;;;;6.82;2.60;;;;;;;28.07;62.16;101307.00;5071732;28;20192;-70
2022/08/04 07:32:22;;;;;;;6.30;2.33;;;;;;;28.02;61.47;101302.84;5069474;28;20564;-70
2022/08/04 07:34:51;;;;;;;6.70;3.00;;;;;;;28.07;61.82;101309.63;5069185;28;20192;-71
2022/08/04 07:37:17;;;;;;;5.75;2.45;;;;;;;28.46;60.92;101305.19;5068996;28;20613;-71
2022/08/04 07:39:43;;;;;;;6.22;2.45;;;;;;;28.66;61.65;101302.50;5069095;28;20196;-71
2022/08/04 07:42:09;;;;;;;6.43;2.42;;;;;;;28.50;60.25;101304.13;5073279;28;20215;-71
2022/08/04 07:44:34;;;;;;;9.35;2.92;;;;;;;28.77;59.64;101307.22;5084149;28;20715;-70
2022/08/04 07:47:02;;;;;;;7.55;2.80;;;;;;;28.86;59.47;101304.16;5090131;28;20192;-71
2022/08/04 07:49:28;;;;;;;6.28;2.58;;;;;;;29.18;59.15;101306.09;5089660;28;20183;-70
2022/08/04 07:51:53;;;;;;;7.80;2.90;;;;;;;29.41;57.00;101298.75;5089326;28;20253;-72
2022/08/04 07:54:19;;;;;;;6.25;2.75;;;;;;;29.76;55.88;101300.44;5089231;28;20188;-71
2022/08/04 07:56:48;;;;;;;5.05;2.30;;;;;;;29.71;55.15;101294.53;5089026;28;20208;-72
2022/08/04 07:59:15;;;;;;;5.85;2.47;;;;;;;29.91;54.82;101290.84;5088213;28;20669;-72
2022/08/04 08:01:40;;;;;;;5.97;2.55;;;;;;;30.28;54.00;101290.63;5068814;28;20220;-72
2022/08/04 08:04:08;;;;;;;4.40;2.30;;;;;;;30.21;53.20;101291.03;5079497;28;20188;-72
2022/08/04 08:06:36;;;;;;;8.48;2.60;;;;;;;30.55;52.11;101285.59;5089011;28;20670;-72
2022/08/04 08:09:17;;;;;;;5.47;2.40;;;;;;;30.80;51.46;101278.84;5088994;28;20187;-71
2022/08/04 08:11:48;;;;;;;5.60;2.38;;;;;;;30.72;50.94;101277.59;5109161;28;20249;-72
2022/08/04 08:14:15;;;;;;;5.15;2.50;;;;;;;30.89;52.47;101278.31;5109667;28;20211;-72
2022/08/04 08:16:41;;;;;;;6.85;2.47;;;;;;;30.70;50.76;101275.03;5112203;28;20719;-72
2022/08/04 08:19:07;;;;;;;7.30;2.53;;;;;;;31.05;50.57;101275.66;5114022;28;20184;-72
2022/08/04 08:21:33;;;;;;;4.00;2.20;;;;;;;31.14;49.17;101268.03;5113609;28;20207;-72
2022/08/04 08:23:59;;;;;;;6.30;2.60;;;;;;;31.08;49.28;101278.97;5089609;28;20249;-72
2022/08/04 08:26:25;;;;;;;4.32;2.47;;;;;;;31.09;49.56;101274.53;5092702;28;20183;-71
2022/08/04 08:28:51;;;;;;;4.55;2.40;;;;;;;31.25;49.61;101265.63;5092909;28;20181;-71
2022/08/04 08:31:16;;;;;;;6.30;2.42;;;;;;;31.77;48.22;101260.75;5092659;28;20204;-72
2022/08/04 08:33:42;;;;;;;7.45;2.45;;;;;;;31.84;47.37;101265.56;5092807;28;20291;-72
2022/08/04 08:36:26;;;;;;;4.60;2.10;;;;;;;32.19;46.38;101258.94;5092715;28;20271;-72
2022/08/04 08:38:59;;;;;;;5.47;2.55;;;;;;;32.31;45.99;101257.31;5092581;28;20557;-72
2022/08/04 08:41:46;;;;;;;4.28;2.13;;;;;;;32.73;46.33;101250.06;5097365;28;20244;-71
2022/08/04 08:44:49;;;;;;;5.95;2.40;;;;;;;32.97;44.16;101248.47;5104599;28;20183;-72
2022/08/04 08:47:49;;;;;;;5.50;2.63;;;;;;;32.34;44.19;101249.16;5111875;28;20183;-72
2022/08/04 08:50:18;;;;;;;6.03;2.40;;;;;;;32.25;44.94;101252.34;5112799;28;20187;-71
2022/08/04 08:53:01;;;;;;;7.55;2.90;;;;;;;32.25;44.61;101239.97;5112678;28;20203;-72
2022/08/04 08:55:48;;;;;;;5.20;2.70;;;;;;;32.69;44.68;101245.91;5112783;28;20209;-72
2022/08/04 08:58:45;;;;;;;5.88;2.38;;;;;;;32.78;44.69;101245.31;5112358;28;20714;-71
2022/08/04 09:01:44;;;;;;;5.10;2.35;;;;;;;33.07;43.87;101236.31;5094740;28;20209;-73
2022/08/04 09:04:37;;;;;;;6.20;2.47;;;;;;;33.07;42.75;101238.97;5092095;28;20532;-72
2022/08/04 09:07:25;;;;;;;6.03;2.75;;;;;;;33.40;42.81;101230.50;5091968;28;20526;-71
2022/08/04 09:10:05;;;;;;;5.50;2.10;;;;;;;33.21;42.47;101235.34;5087534;28;20729;-72
2022/08/04 09:13:29;;;;;;;5.75;2.65;;;;;;;33.77;41.81;101227.00;5071731;28;20197;-71
2022/08/04 09:16:13;;;;;;;5.25;2.70;;;;;;;33.29;42.10;101235.69;4989646;28;20205;-71
2022/08/04 09:18:59;;;;;;;5.30;3.00;;;;;;;33.37;41.78;101238.72;4971283;28;20239;-72
2022/08/04 09:21:33;;;;;;;7.75;2.70;;;;;;;33.79;41.86;101231.25;5054602;28;20290;-72
2022/08/04 09:24:07;;;;;;;4.85;2.80;;;;;;;34.42;41.87;101226.69;5071092;28;20178;-71
2022/08/04 09:26:38;;;;;;;6.15;2.78;;;;;;;34.42;39.57;101220.50;5070710;28;20181;-72
2022/08/04 09:29:14;;;;;;;5.85;2.67;;;;;;;34.79;39.43;101227.50;5055379;28;20196;-69
2022/08/04 09:31:46;;;;;;;7.20;2.75;;;;;;;34.80;39.65;101222.06;5043725;28;20649;-69
2022/08/04 09:34:38;;;;;;;7.80;3.13;;;;;;;35.02;39.11;101213.28;5075476;28;20258;-72
2022/08/04 09:37:22;;;;;;;4.63;2.75;;;;;;;35.12;38.50;101215.13;5080473;28;20231;-72
2022/08/04 09:40:03;;;;;;;4.30;2.20;;;;;;;35.26;38.25;101206.09;5071810;28;20670;-73
2022/08/04 09:42:40;;;;;;;7.32;2.65;;;;;;;35.30;38.00;101212.91;5091532;28;20211;-71
2022/08/04 09:45:08;;;;;;;5.20;2.60;;;;;;;35.21;37.44;101210.91;5090102;28;20221;-72
2022/08/04 09:48:03;;;;;;;3.30;2.30;;;;;;;35.44;31.74;101218.88;5099517;28;20249;-72
2022/08/04 09:50:38;;;;;;;7.60;2.40;;;;;;;35.73;31.57;101211.28;5071111;28;20198;-72
2022/08/04 09:53:35;;;;;;;3.30;2.53;;;;;;;35.69;32.10;101215.13;5080495;28;20902;-70
2022/08/04 09:56:01;;;;;;;3.53;2.22;;;;;;;35.31;30.51;101217.28;5091341;28;20180;-72
2022/08/04 09:58:51;;;;;;;4.28;2.40;;;;;;;35.11;31.98;101212.59;5091193;28;20192;-72
2022/08/04 10:01:22;;;;;;;4.40;2.30;;;;;;;35.07;30.16;101205.78;5091163;28;20536;-71
2022/08/04 10:03:54;;;;;;;4.22;2.40;;;;;;;35.49;29.94;101202.50;5091226;28;20222;-72
2022/08/04 10:06:27;;;;;;;2.60;2.10;;;;;;;36.18;29.35;101203.09;5090970;28;20204;-71
2022/08/04 10:09:17;;;;;;;3.78;2.30;;;;;;;35.75;29.76;101206.66;5091173;28;20165;-72
2022/08/04 10:12:01;;;;;;;4.30;2.30;;;;;;;35.75;29.27;101196.88;5091047;28;20825;-72
2022/08/04 10:14:27;;;;;;;3.22;2.20;;;;;;;35.76;27.47;101197.69;5091148;28;20210;-71
2022/08/04 10:16:57;;;;;;;3.05;2.25;;;;;;;36.27;27.78;101189.03;5090780;28;20216;-72
2022/08/04 10:19:27;;;;;;;2.60;2.17;;;;;;;35.87;27.83;101195.88;5091063;28;20184;-72
2022/08/04 10:22:18;;;;;;;2.63;2.20;;;;;;;36.26;28.98;101183.81;5090578;28;20230;-72
2022/08/04 10:25:11;;;;;;;2.97;2.25;;;;;;;35.71;28.77;101183.84;5090840;28;20172;-71
2022/08/04 10:27:44;;;;;;;5.57;2.47;;;;;;;36.12;29.15;101189.41;5072218;28;20169;-72
2022/08/04 10:30:12;;;;;;;2.78;1.90;;;;;;;36.33;29.18;101179.69;5075141;28;20580;-71
2022/08/04 10:33:02;;;;;;;2.75;2.20;;;;;;;36.59;28.61;101187.22;5095764;28;20219;-71
2022/08/04 10:35:36;;;;;;;3.63;2.40;;;;;;;36.67;29.03;101171.47;5095840;28;20191;-72
2022/08/04 10:38:30;;;;;;;3.95;2.45;;;;;;;36.67;28.98;101175.94;5101781;28;20180;-72
2022/08/04 10:41:04;;;;;;;3.90;2.50;;;;;;;37.01;29.18;101180.13;5110817;28;20203;-72
2022/08/04 10:43:53;;;;;;;4.93;2.47;;;;;;;36.96;29.17;101167.16;5099236;28;20184;-72
2022/08/04 10:46:36;;;;;;;6.63;2.70;;;;;;;36.27;29.54;101167.69;5071926;28;20639;-72
2022/08/04 10:49:07;;;;;;;3.65;2.50;;;;;;;36.65;28.78;101165.34;5072269;28;20196;-72
2022/08/04 10:52:00;;;;;;;5.45;2.50;;;;;;;37.04;28.59;101147.78;5090163;28;20206;-70
2022/08/04 10:54:36;;;;;;;6.97;2.58;;;;;;;37.03;28.54;101154.94;5090599;28;20180;-72
2022/08/04 10:57:14;;;;;;;9.40;2.80;;;;;;;37.13;29.71;101143.50;5090389;28;20188;-71
2022/08/04 10:59:51;;;;;;;3.78;2.40;;;;;;;37.63;28.60;101137.28;5090300;28;20192;-70
2022/08/04 11:02:40;;;;;;;2.75;2.50;;;;;;;38.05;28.65;101138.84;5090136;28;20212;-72
2022/08/04 11:05:28;;;;;;;5.63;2.72;;;;;;;38.08;28.17;101134.06;5090097;28;20184;-72
2022/08/04 11:08:01;;;;;;;3.10;2.63;;;;;;;37.74;27.53;101142.56;5071764;28;20176;-73
2022/08/04 11:10:31;;;;;;;3.50;2.85;;;;;;;37.40;28.90;101143.78;5090079;28;20183;-72
2022/08/04 11:13:03;;;;;;;4.05;2.67;;;;;;;38.17;28.22;101129.69;5090280;28;20168;-72
2022/08/04 11:15:38;;;;;;;3.97;2.75;;;;;;;38.18;28.98;101126.91;5090232;28;20283;-72
2022/08/04 11:18:18;;;;;;;4.97;2.72;;;;;;;37.39;28.14;101124.25;5090011;28;20774;-72
2022/08/04 11:20:58;;;;;;;6.32;2.80;;;;;;;37.97;29.46;101123.44;5090070;28;20234;-72
2022/08/04 11:23:32;;;;;;;4.03;2.85;;;;;;;37.35;28.77;101125.47;5090044;28;20168;-72
2022/08/04 11:26:11;;;;;;;4.75;2.45;;;;;;;37.30;28.83;101126.84;5089807;28;20180;-72
2022/08/04 11:28:57;;;;;;;4.50;2.55;;;;;;;37.50;28.54;101129.47;5089525;28;20173;-72
2022/08/04 11:31:27;;;;;;;4.72;2.55;;;;;;;37.59;28.94;101125.16;5072743;28;20211;-71
2022/08/04 11:34:04;;;;;;;5.30;2.53;;;;;;;37.79;28.35;101121.59;5089716;28;20211;-72
2022/08/04 11:36:42;;;;;;;4.75;2.50;;;;;;;38.05;27.42;101118.28;5089371;28;20566;-72
2022/08/04 11:39:33;;;;;;;4.00;2.40;;;;;;;37.71;27.39;101108.91;5099454;28;20191;-72
2022/08/04 11:42:06;;;;;;;2.50;2.30;;;;;;;37.87;26.68;101109.19;5109850;28;20211;-72
2022/08/04 11:44:48;;;;;;;3.28;2.10;;;;;;;37.04;27.59;101116.59;5089286;28;20193;-72
2022/08/04 11:47:42;;;;;;;3.47;2.35;;;;;;;37.33;27.56;101118.59;5089334;28;20268;-72
2022/08/04 11:50:22;;;;;;;3.00;2.55;;;;;;;38.36;26.52;101105.59;5063388;28;20212;-72
2022/08/04 11:52:52;;;;;;;3.92;2.25;;;;;;;37.65;28.01;101114.78;5089362;28;20245;-71
2022/08/04 11:55:20;;;;;;;2.72;2.53;;;;;;;36.69;28.20;101109.88;5089752;28;20157;-71
2022/08/04 11:57:46;;;;;;;6.25;2.45;;;;;;;37.41;26.90;101108.03;5089336;28;20188;-71
2022/08/04 12:00:14;;;;;;;4.47;2.53;;;;;;;37.21;27.08;101106.28;5089454;28;20266;-72
2022/08/04 12:02:58;;;;;;;5.00;2.65;;;;;;;37.36;26.75;101108.44;5089291;28;20242;-71
2022/08/04 12:05:31;;;;;;;2.42;2.00;;;;;;;37.53;26.84;101099.78;5071343;28;20195;-72
2022/08/04 12:07:57;;;;;;;3.15;2.35;;;;;;;37.85;26.73;101103.16;5090429;28;20180;-71